createdAt,value
2018-06-22T00:01:33.636Z,43.70
2018-06-22T00:04:01.308Z,43.80
2018-06-22T00:06:29.272Z,44.00
2018-06-22T00:08:56.918Z,44.10
2018-06-22T00:11:24.965Z,44.10
2018-06-22T00:13:52.542Z,44.80
2018-06-22T00:16:20.173Z,44.40
2018-06-22T00:18:48.071Z,44.20
2018-06-22T00:21:15.732Z,44.60
2018-06-22T00:23:43.794Z,44.50
2018-06-22T00:26:11.387Z,44.70
2018-06-22T00:31:06.704Z,45.00
2018-06-22T00:33:34.290Z,45.00
2018-06-22T00:36:01.853Z,45.00
2018-06-22T00:38:29.439Z,44.60
2018-06-22T00:40:57.158Z,45.90
2018-06-22T00:43:24.767Z,45.30
2018-06-22T00:48:20.063Z,45.40
2018-06-22T00:50:47.708Z,45.40
2018-06-22T00:53:33.164Z,45.50
2018-06-22T00:56:00.761Z,45.40
2018-06-22T00:58:28.372Z,45.50
2018-06-22T01:00:56.176Z,45.60
2018-06-22T01:03:23.781Z,45.60
2018-06-22T01:05:51.389Z,45.60
2018-06-22T01:08:18.935Z,45.70
2018-06-22T01:10:46.491Z,46.50
2018-06-22T01:13:14.067Z,46.10
2018-06-22T01:15:41.672Z,46.10
2018-06-22T01:18:09.275Z,46.20
2018-06-22T01:20:37.168Z,46.30
2018-06-22T01:23:05.194Z,46.40
2018-06-22T01:25:33.100Z,46.40
2018-06-22T01:28:00.711Z,46.20
2018-06-22T01:30:28.269Z,46.40
2018-06-22T01:32:56.009Z,46.40
2018-06-22T01:35:23.615Z,46.40
2018-06-22T01:37:51.292Z,46.50
2018-06-22T01:40:18.918Z,46.60
2018-06-22T01:45:14.903Z,47.20
2018-06-22T01:47:42.544Z,46.60
2018-06-22T01:50:10.381Z,46.70
2018-06-22T01:52:37.966Z,46.80
2018-06-22T01:55:05.575Z,46.90
2018-06-22T01:57:33.194Z,46.90
2018-06-22T02:00:01.057Z,46.90
2018-06-22T02:02:44.244Z,47.00
2018-06-22T02:05:19.895Z,47.10
2018-06-22T02:07:47.467Z,47.00
2018-06-22T02:10:15.069Z,47.10
2018-06-22T02:12:43.052Z,47.20
2018-06-22T02:15:10.635Z,47.20
2018-06-22T02:17:38.223Z,47.40
2018-06-22T02:20:05.869Z,47.50
2018-06-22T02:22:33.453Z,47.40
2018-06-22T02:25:01.055Z,47.50
2018-06-22T02:27:28.688Z,47.60
2018-06-22T02:29:56.267Z,47.60
2018-06-22T02:32:23.891Z,47.60
2018-06-22T02:34:51.501Z,47.70
2018-06-22T02:37:19.120Z,47.80
2018-06-22T02:39:46.680Z,47.80
2018-06-22T02:42:14.405Z,47.80
2018-06-22T02:44:42.006Z,47.90
2018-06-22T02:47:09.559Z,48.00
2018-06-22T02:49:37.176Z,48.10
2018-06-22T02:52:04.788Z,48.20
2018-06-22T02:54:32.441Z,48.30
2018-06-22T02:57:00.111Z,48.50
2018-06-22T02:59:27.677Z,48.60
2018-06-22T03:01:55.661Z,48.60
2018-06-22T03:04:23.252Z,49.30
2018-06-22T03:06:50.806Z,48.70
2018-06-22T03:11:46.058Z,48.90
2018-06-22T03:14:13.668Z,48.90
2018-06-22T03:16:41.300Z,49.00
2018-06-22T03:19:08.891Z,49.10
2018-06-22T03:21:36.459Z,49.10
2018-06-22T03:24:04.047Z,49.20
2018-06-22T03:26:31.658Z,49.10
2018-06-22T03:28:59.266Z,49.10
2018-06-22T03:31:26.858Z,49.20
2018-06-22T03:33:54.622Z,49.10
2018-06-22T03:36:22.204Z,49.10
2018-06-22T03:38:49.904Z,49.00
2018-06-22T03:41:17.479Z,49.30
2018-06-22T03:43:45.110Z,49.20
2018-06-22T03:46:12.672Z,49.20
2018-06-22T03:48:40.244Z,49.20
2018-06-22T03:53:35.496Z,49.30
2018-06-22T03:56:03.123Z,49.40
2018-06-22T03:58:30.708Z,49.50
2018-06-22T04:00:58.295Z,49.60
2018-06-22T04:03:26.025Z,49.70
2018-06-22T04:05:53.614Z,49.60
2018-06-22T04:08:21.284Z,50.20
2018-06-22T04:10:48.995Z,49.90
2018-06-22T04:13:16.604Z,50.00
2018-06-22T04:15:44.248Z,50.00
2018-06-22T04:18:11.924Z,50.10
2018-06-22T04:20:39.553Z,50.20
2018-06-22T04:23:07.126Z,50.30
2018-06-22T04:25:34.672Z,50.30
2018-06-22T04:28:02.336Z,50.40
2018-06-22T04:30:29.950Z,50.40
2018-06-22T04:32:57.588Z,50.50
2018-06-22T04:35:25.336Z,50.50
2018-06-22T04:37:52.948Z,50.60
2018-06-22T04:40:20.512Z,50.70
2018-06-22T04:42:48.208Z,50.70
2018-06-22T04:47:43.561Z,50.60
2018-06-22T04:50:11.144Z,50.60
2018-06-22T04:52:38.859Z,50.60
2018-06-22T04:55:06.533Z,50.60
2018-06-22T05:00:01.856Z,50.50
2018-06-22T05:02:29.508Z,50.40
2018-06-22T05:04:57.113Z,50.40
2018-06-22T05:07:24.748Z,50.40
2018-06-22T05:09:52.330Z,50.40
2018-06-22T05:14:47.548Z,50.60
2018-06-22T05:17:15.170Z,50.50
2018-06-22T05:19:42.720Z,50.80
2018-06-22T05:22:10.360Z,50.80
2018-06-22T05:24:37.936Z,50.70
2018-06-22T05:27:05.580Z,50.70
2018-06-22T05:29:33.351Z,50.60
2018-06-22T05:32:00.939Z,50.50
2018-06-22T05:36:56.164Z,50.30
2018-06-22T05:39:23.801Z,50.20
2018-06-22T05:41:51.383Z,50.00
2018-06-22T05:44:18.976Z,50.00
2018-06-22T05:46:46.599Z,49.90
2018-06-22T05:49:14.236Z,49.80
2018-06-22T05:51:41.915Z,49.70
2018-06-22T05:54:09.495Z,49.70
2018-06-22T05:56:37.091Z,49.70
2018-06-22T05:59:04.739Z,49.80
2018-06-22T06:01:32.344Z,49.70
2018-06-22T06:06:27.669Z,49.70
2018-06-22T06:08:55.654Z,49.80
2018-06-22T06:11:23.240Z,49.70
2018-06-22T06:13:51.918Z,49.50
2018-06-22T06:16:19.515Z,49.30
2018-06-22T06:18:47.381Z,49.10
2018-06-22T06:21:14.967Z,48.90
2018-06-22T06:23:42.591Z,48.70
2018-06-22T06:26:10.205Z,48.70
2018-06-22T06:31:05.433Z,48.70
2018-06-22T06:33:33.021Z,48.60
2018-06-22T06:36:00.643Z,48.60
2018-06-22T06:38:28.232Z,48.60
2018-06-22T06:40:55.828Z,48.50
2018-06-22T06:43:23.751Z,48.40
2018-06-22T06:45:51.376Z,48.30
2018-06-22T06:50:46.622Z,48.40
2018-06-22T06:53:14.195Z,48.40
2018-06-22T06:55:41.803Z,48.40
2018-06-22T06:58:09.367Z,48.40
2018-06-22T07:00:36.960Z,48.70
2018-06-22T07:03:04.768Z,48.50
2018-06-22T07:05:32.372Z,48.50
2018-06-22T07:07:59.972Z,48.50
2018-06-22T07:10:27.586Z,48.60
2018-06-22T07:12:55.176Z,48.50
2018-06-22T07:15:23.143Z,48.40
2018-06-22T07:17:50.801Z,48.40
2018-06-22T07:20:18.364Z,48.30
2018-06-22T07:22:45.974Z,48.20
2018-06-22T07:27:41.215Z,47.80
2018-06-22T07:30:08.808Z,47.50
2018-06-22T07:32:36.381Z,47.40
2018-06-22T07:35:04.010Z,47.20
2018-06-22T07:37:31.560Z,47.10
2018-06-22T07:39:59.135Z,47.10
2018-06-22T07:42:26.696Z,47.10
2018-06-22T07:44:54.256Z,47.10
2018-06-22T07:47:21.844Z,47.10
2018-06-22T07:49:49.451Z,47.10
2018-06-22T07:52:17.038Z,47.00
2018-06-22T07:54:44.663Z,46.90
2018-06-22T07:57:12.250Z,46.90
2018-06-22T07:59:39.800Z,46.90
2018-06-22T08:02:07.476Z,46.90
2018-06-22T08:04:35.080Z,46.90
2018-06-22T08:09:30.535Z,46.90
2018-06-22T08:11:58.169Z,46.80
2018-06-22T08:14:25.785Z,46.80
2018-06-22T08:16:53.610Z,46.60
2018-06-22T08:19:21.200Z,46.40
2018-06-22T08:21:48.837Z,46.20
2018-06-22T08:26:44.177Z,46.10
2018-06-22T08:29:11.719Z,46.00
2018-06-22T08:31:39.295Z,46.00
2018-06-22T08:34:07.481Z,46.00
2018-06-22T08:36:35.075Z,46.00
2018-06-22T08:39:02.926Z,46.00
2018-06-22T08:41:30.537Z,46.00
2018-06-22T08:43:58.128Z,46.00
2018-06-22T08:46:25.737Z,46.30
2018-06-22T08:48:53.498Z,46.60
2018-06-22T08:51:21.032Z,46.80
2018-06-22T08:53:48.643Z,46.70
2018-06-22T08:56:16.198Z,46.40
2018-06-22T08:58:43.759Z,46.20
2018-06-22T09:01:11.368Z,46.40
2018-06-22T09:03:38.985Z,45.70
2018-06-22T09:06:06.576Z,46.30
2018-06-22T09:08:35.211Z,46.10
2018-06-22T09:11:02.825Z,46.30
2018-06-22T09:13:30.416Z,46.50
2018-06-22T09:15:57.972Z,46.60
2018-06-22T09:18:25.521Z,46.40
2018-06-22T09:20:53.075Z,46.30
2018-06-22T09:23:20.646Z,46.40
2018-06-22T09:25:48.288Z,46.40
2018-06-22T09:28:15.867Z,46.60
2018-06-22T09:30:43.439Z,46.90
2018-06-22T09:33:11.055Z,47.00
2018-06-22T09:35:38.619Z,47.30
2018-06-22T09:38:06.275Z,47.20
2018-06-22T09:40:34.040Z,47.70
2018-06-22T09:43:01.655Z,48.50
2018-06-22T09:45:29.189Z,48.70
2018-06-22T09:47:57.012Z,48.60
2018-06-22T09:50:24.590Z,48.50
2018-06-22T09:52:52.300Z,48.30
2018-06-22T09:55:19.883Z,48.20
2018-06-22T09:57:47.443Z,48.20
2018-06-22T10:00:17.278Z,47.20
2018-06-22T10:02:45.047Z,46.50
2018-06-22T10:05:12.618Z,45.10
2018-06-22T10:07:40.220Z,45.40
2018-06-22T10:10:07.769Z,44.40
2018-06-22T10:12:35.397Z,44.00
2018-06-22T10:15:02.987Z,43.70
2018-06-22T10:17:30.571Z,43.80
2018-06-22T10:19:58.136Z,44.20
2018-06-22T10:22:25.691Z,44.60
2018-06-22T10:24:53.279Z,45.00
2018-06-22T10:27:20.846Z,45.80
2018-06-22T10:29:48.436Z,46.60
2018-06-22T10:32:16.048Z,46.90
2018-06-22T10:34:43.891Z,46.80
2018-06-22T10:37:11.489Z,46.30
2018-06-22T10:42:06.731Z,45.10
2018-06-22T10:44:34.357Z,44.80
2018-06-22T10:47:01.958Z,44.50
2018-06-22T10:49:29.599Z,43.50
2018-06-22T10:51:57.284Z,42.70
2018-06-22T10:54:24.895Z,42.60
2018-06-22T10:56:52.490Z,41.30
2018-06-22T10:59:20.076Z,40.80
2018-06-22T11:01:47.640Z,40.80
2018-06-22T11:04:15.286Z,40.80
2018-06-22T11:06:42.884Z,41.00
2018-06-22T11:09:11.537Z,41.50
2018-06-22T11:11:39.259Z,41.60
2018-06-22T11:14:06.895Z,41.80
2018-06-22T11:16:34.504Z,41.90
2018-06-22T11:19:02.816Z,42.00
2018-06-22T11:21:30.586Z,41.40
2018-06-22T11:23:58.205Z,41.10
2018-06-22T11:26:25.791Z,40.90
2018-06-22T11:28:53.408Z,41.00
2018-06-22T11:31:20.968Z,41.30
2018-06-22T11:33:48.531Z,41.70
2018-06-22T11:36:16.206Z,41.90
2018-06-22T11:38:43.741Z,42.00
2018-06-22T11:41:11.337Z,42.30
2018-06-22T11:43:39.329Z,42.70
2018-06-22T11:46:06.972Z,43.00
2018-06-22T11:48:34.594Z,43.30
2018-06-22T11:51:02.202Z,43.40
2018-06-22T11:53:29.915Z,43.20
2018-06-22T11:55:57.560Z,43.40
2018-06-22T11:58:25.138Z,43.70
2018-06-22T12:00:52.715Z,43.90
2018-06-22T12:03:20.272Z,44.00
2018-06-22T12:05:47.947Z,44.10
2018-06-22T12:08:15.537Z,44.10
2018-06-22T12:10:43.136Z,43.90
2018-06-22T12:15:38.387Z,43.10
2018-06-22T12:18:06.052Z,42.50
2018-06-22T12:20:33.619Z,42.20
2018-06-22T12:23:01.211Z,42.30
2018-06-22T12:25:29.304Z,42.30
2018-06-22T12:27:57.106Z,42.30
2018-06-22T12:30:24.734Z,42.10
2018-06-22T12:32:52.579Z,42.10
2018-06-22T12:35:20.200Z,41.70
2018-06-22T12:37:47.783Z,40.80
2018-06-22T12:40:15.381Z,40.40
2018-06-22T12:42:42.949Z,40.10
2018-06-22T12:45:10.588Z,39.70
2018-06-22T12:47:38.211Z,39.80
2018-06-22T12:50:06.278Z,39.70
2018-06-22T12:52:33.900Z,39.90
2018-06-22T12:55:01.484Z,40.10
2018-06-22T12:57:29.131Z,40.20
2018-06-22T12:59:56.748Z,39.60
2018-06-22T13:02:24.352Z,40.00
2018-06-22T13:04:51.923Z,39.90
2018-06-22T13:07:19.516Z,40.40
2018-06-22T13:09:47.169Z,39.50
2018-06-22T13:12:14.823Z,39.30
2018-06-22T13:14:42.490Z,39.10
2018-06-22T13:17:10.119Z,39.10
2018-06-22T13:19:37.720Z,39.10
2018-06-22T13:22:05.447Z,39.10
2018-06-22T13:24:33.093Z,39.20
2018-06-22T13:27:00.710Z,39.20
2018-06-22T13:29:28.371Z,39.10
2018-06-22T13:31:55.985Z,39.40
2018-06-22T13:34:23.535Z,39.90
2018-06-22T13:36:51.159Z,40.20
2018-06-22T13:39:19.064Z,40.50
2018-06-22T13:41:47.187Z,40.80
2018-06-22T13:44:14.748Z,41.20
2018-06-22T13:46:43.244Z,41.90
2018-06-22T13:49:11.271Z,42.30
2018-06-22T13:51:38.952Z,42.30
2018-06-22T13:54:07.264Z,42.50
2018-06-22T13:56:35.361Z,42.90
2018-06-22T13:59:03.061Z,43.50
2018-06-22T14:04:05.245Z,44.10
2018-06-22T14:06:38.646Z,44.20
2018-06-22T14:09:11.831Z,44.30
2018-06-22T14:11:39.873Z,44.70
2018-06-22T14:14:07.492Z,44.20
2018-06-22T14:16:35.412Z,44.00
2018-06-22T14:19:05.132Z,43.90
2018-06-22T14:21:33.100Z,43.60
2018-06-22T14:24:00.761Z,43.40
2018-06-22T14:26:28.385Z,43.40
2018-06-22T14:28:56.067Z,43.50
2018-06-22T14:31:23.692Z,43.50
2018-06-22T14:33:51.280Z,43.30
2018-06-22T14:36:18.940Z,43.20
2018-06-22T14:38:46.531Z,43.30
2018-06-22T14:41:14.119Z,43.40
2018-06-22T14:43:41.687Z,43.40
2018-06-22T14:46:09.304Z,43.60
2018-06-22T14:51:05.090Z,43.90
2018-06-22T14:53:38.571Z,43.30
2018-06-22T14:56:11.952Z,43.10
2018-06-22T14:58:45.319Z,43.00
2018-06-22T15:01:18.638Z,42.70
2018-06-22T15:03:52.096Z,42.50
2018-06-22T15:06:25.642Z,42.40
2018-06-22T15:08:53.267Z,42.00
2018-06-22T15:11:20.851Z,41.70
2018-06-22T15:13:48.919Z,41.40
2018-06-22T15:18:44.853Z,42.10
2018-06-22T15:21:12.422Z,42.80
2018-06-22T15:23:40.058Z,43.40
2018-06-22T15:26:07.668Z,43.90
2018-06-22T15:28:35.303Z,44.30
2018-06-22T15:31:02.918Z,44.60
2018-06-22T15:33:36.471Z,45.00
2018-06-22T15:36:09.896Z,45.90
2018-06-22T15:38:43.313Z,45.30
2018-06-22T15:41:16.747Z,45.20
2018-06-22T15:43:50.163Z,45.20
2018-06-22T15:46:23.580Z,45.50
2018-06-22T15:48:57.183Z,45.90
2018-06-22T15:51:31.068Z,46.00
2018-06-22T15:54:04.623Z,46.10
2018-06-22T15:56:32.350Z,46.10
2018-06-22T15:59:00.047Z,46.20
2018-06-22T16:01:28.008Z,46.60
2018-06-22T16:03:56.927Z,47.20
2018-06-22T16:06:25.501Z,46.70
2018-06-22T16:08:54.119Z,46.70
2018-06-22T16:11:25.764Z,46.70
2018-06-22T16:14:00.206Z,47.40
2018-06-22T16:17:37.501Z,47.10
2018-06-22T16:22:44.339Z,48.10
2018-06-22T16:25:17.759Z,48.60
2018-06-22T16:27:48.268Z,48.70
2018-06-22T16:30:15.844Z,48.50
2018-06-22T16:32:43.415Z,48.40
2018-06-22T16:35:10.993Z,48.70
2018-06-22T16:37:38.547Z,49.30
2018-06-22T16:40:06.153Z,49.90
2018-06-22T16:42:33.756Z,50.00
2018-06-22T16:45:01.333Z,50.30
2018-06-22T16:47:28.935Z,50.30
2018-06-22T16:49:56.509Z,50.50
2018-06-22T16:52:24.567Z,50.90
2018-06-22T16:54:52.168Z,50.90
2018-06-22T16:57:19.796Z,50.90
2018-06-22T16:59:47.398Z,51.30
2018-06-22T17:02:14.992Z,51.60
2018-06-22T17:04:42.602Z,51.90
2018-06-22T17:07:15.927Z,52.30
2018-06-22T17:09:49.501Z,52.30
2018-06-22T17:12:22.855Z,52.10
2018-06-22T17:14:56.273Z,52.00
2018-06-22T17:17:29.601Z,52.20
2018-06-22T17:19:57.163Z,52.80
2018-06-22T17:22:24.748Z,54.90
2018-06-22T17:24:52.349Z,56.90
2018-06-22T17:27:20.032Z,58.50
2018-06-22T17:29:47.656Z,59.40
2018-06-22T17:32:15.323Z,60.50
2018-06-22T17:34:42.960Z,61.80
2018-06-22T17:37:10.617Z,62.50
2018-06-22T17:39:38.224Z,63.10
2018-06-22T17:42:05.850Z,63.70
2018-06-22T17:44:33.465Z,64.70
2018-06-22T17:47:01.103Z,65.70
2018-06-22T17:49:28.823Z,66.30
2018-06-22T17:51:56.456Z,66.60
2018-06-22T17:54:24.888Z,66.80
2018-06-22T17:59:26.009Z,67.60
2018-06-22T18:01:59.690Z,68.30
2018-06-22T18:04:32.957Z,68.70
2018-06-22T18:09:39.988Z,69.70
2018-06-22T18:12:13.440Z,69.90
2018-06-22T18:14:41.307Z,70.20
2018-06-22T18:17:09.031Z,70.60
2018-06-22T18:19:36.700Z,71.50
2018-06-22T18:22:04.294Z,70.80
2018-06-22T18:24:32.673Z,70.90
2018-06-22T18:27:00.238Z,71.10
2018-06-22T18:29:27.824Z,71.60
2018-06-22T18:31:55.417Z,72.00
2018-06-22T18:34:23.023Z,72.20
2018-06-22T18:36:50.723Z,72.40
2018-06-22T18:39:18.359Z,72.50
2018-06-22T18:41:46.024Z,72.50
2018-06-22T18:44:16.605Z,72.60
2018-06-22T18:46:44.650Z,72.60
2018-06-22T18:49:12.312Z,72.70
2018-06-22T18:51:40.016Z,72.90
2018-06-22T18:54:13.527Z,73.30
2018-06-22T18:56:47.087Z,73.60
2018-06-22T18:59:20.388Z,73.70
2018-06-22T19:01:53.909Z,74.00
2018-06-22T19:04:21.517Z,74.40
2018-06-22T19:06:49.192Z,74.70
2018-06-22T19:09:16.816Z,75.00
2018-06-22T19:11:44.466Z,75.30
2018-06-22T19:14:12.096Z,75.50
2018-06-22T19:16:40.296Z,75.80
2018-06-22T19:19:08.212Z,75.90
2018-06-22T19:24:03.530Z,76.00
2018-06-22T19:26:31.430Z,76.90
2018-06-22T19:28:59.092Z,76.50
2018-06-22T19:31:26.728Z,76.50
2018-06-22T19:33:54.327Z,76.60
2018-06-22T19:36:21.925Z,76.60
2018-06-22T19:38:49.547Z,76.70
2018-06-22T19:43:50.500Z,77.00
2018-06-22T19:46:23.869Z,77.10
2018-06-22T19:48:57.287Z,77.80
2018-06-22T19:51:30.800Z,77.70
2018-06-22T19:54:08.648Z,77.90
2018-06-22T19:56:36.354Z,78.20
2018-06-22T19:59:04.084Z,78.40
2018-06-22T20:01:31.715Z,78.40
2018-06-22T20:03:59.276Z,78.30
2018-06-22T20:06:27.156Z,78.30
2018-06-22T20:08:54.773Z,78.50
2018-06-22T20:11:22.603Z,78.40
2018-06-22T20:13:50.198Z,78.40
2018-06-22T20:16:17.847Z,78.40
2018-06-22T20:18:45.431Z,78.50
2018-06-22T20:21:13.046Z,78.60
2018-06-22T20:26:08.399Z,78.90
2018-06-22T20:28:36.008Z,79.00
2018-06-22T20:31:03.693Z,79.10
2018-06-22T20:33:31.339Z,79.10
2018-06-22T20:36:04.695Z,79.00
2018-06-22T20:38:38.290Z,79.00
2018-06-22T20:41:11.754Z,79.00
2018-06-22T20:43:45.200Z,79.10
2018-06-22T20:46:17.496Z,79.20
2018-06-22T20:48:51.269Z,79.50
2018-06-22T20:51:19.334Z,79.70
2018-06-22T20:53:48.890Z,79.70
2018-06-22T20:56:16.632Z,79.60
2018-06-22T20:58:44.224Z,79.50
2018-06-22T21:01:12.179Z,79.40
2018-06-22T21:03:39.892Z,79.20
2018-06-22T21:06:07.860Z,79.20
2018-06-22T21:08:35.510Z,79.00
2018-06-22T21:11:03.174Z,78.90
2018-06-22T21:13:30.755Z,78.70
2018-06-22T21:15:58.381Z,78.50
2018-06-22T21:18:25.995Z,78.40
2018-06-22T21:20:59.259Z,78.40
2018-06-22T21:23:27.257Z,78.30
2018-06-22T21:25:54.897Z,78.30
2018-06-22T21:28:28.244Z,78.30
2018-06-22T21:31:01.673Z,78.30
2018-06-22T21:33:35.099Z,78.30
2018-06-22T21:36:08.394Z,78.30
2018-06-22T21:38:41.887Z,78.30
2018-06-22T21:41:09.499Z,78.40
2018-06-22T21:46:05.171Z,78.40
2018-06-22T21:48:32.788Z,78.60
2018-06-22T21:51:00.501Z,78.50
2018-06-22T21:53:28.424Z,78.60
2018-06-22T21:55:56.055Z,78.80
2018-06-22T21:58:23.701Z,78.80
2018-06-22T22:00:51.368Z,78.80
2018-06-22T22:03:18.940Z,78.90
2018-06-22T22:05:46.550Z,78.80
2018-06-22T22:11:11.528Z,78.80
2018-06-22T22:13:39.877Z,79.00
2018-06-22T22:23:52.583Z,78.90
2018-06-22T22:26:20.228Z,79.20
2018-06-22T22:28:47.879Z,79.40
2018-06-22T22:31:15.493Z,80.00
2018-06-22T22:33:43.164Z,80.10
2018-06-22T22:36:10.879Z,80.30
2018-06-22T22:38:38.478Z,80.40
2018-06-22T22:41:06.081Z,80.40
2018-06-22T22:43:33.768Z,80.50
2018-06-22T22:50:57.265Z,80.30
2018-06-22T22:53:24.841Z,80.30
2018-06-22T22:55:52.473Z,80.40
2018-06-22T22:58:20.040Z,80.40
2018-06-22T23:00:47.704Z,80.40
2018-06-22T23:03:15.375Z,80.50
2018-06-22T23:05:44.039Z,80.60
2018-06-22T23:08:11.620Z,80.70
2018-06-22T23:10:39.231Z,80.70
2018-06-22T23:13:06.894Z,80.70
2018-06-22T23:15:34.514Z,80.70
2018-06-22T23:18:02.128Z,80.60
2018-06-22T23:20:29.747Z,80.60
2018-06-22T23:23:15.021Z,80.60
2018-06-22T23:25:42.630Z,80.50
2018-06-22T23:28:10.264Z,80.60
2018-06-22T23:30:37.846Z,80.60
2018-06-22T23:33:05.753Z,80.60
2018-06-22T23:35:33.376Z,80.60
2018-06-22T23:38:00.983Z,81.40
2018-06-22T23:40:28.624Z,80.60
2018-06-22T23:42:56.232Z,80.50
2018-06-22T23:45:23.898Z,80.60
2018-06-22T23:47:51.628Z,80.50
2018-06-22T23:50:19.336Z,80.50
2018-06-22T23:55:14.637Z,80.50
2018-06-22T23:57:42.298Z,80.50
